sensor_id;sensor_type;location;lat;lon;timestamp;temperature;humidity
78028;DHT22;67235;45.638;11.714;2023-11-21T00:00:16;8.90;81.20
78028;DHT22;67235;45.638;11.714;2023-11-21T00:02:42;8.70;81.30
78028;DHT22;67235;45.638;11.714;2023-11-21T00:05:08;8.70;81.30
78028;DHT22;67235;45.638;11.714;2023-11-21T00:07:38;8.80;81.40
78028;DHT22;67235;45.638;11.714;2023-11-21T00:10:04;8.80;81.40
78028;DHT22;67235;45.638;11.714;2023-11-21T00:12:33;8.80;81.50
78028;DHT22;67235;45.638;11.714;2023-11-21T00:14:59;8.80;81.50
78028;DHT22;67235;45.638;11.714;2023-11-21T00:17:25;8.90;81.50
78028;DHT22;67235;45.638;11.714;2023-11-21T00:19:50;8.70;81.30
78028;DHT22;67235;45.638;11.714;2023-11-21T00:22:19;8.70;81.70
78028;DHT22;67235;45.638;11.714;2023-11-21T00:24:45;8.50;81.80
78028;DHT22;67235;45.638;11.714;2023-11-21T00:27:11;8.70;81.70
78028;DHT22;67235;45.638;11.714;2023-11-21T00:29:37;8.80;81.50
78028;DHT22;67235;45.638;11.714;2023-11-21T00:32:04;9.00;81.40
78028;DHT22;67235;45.638;11.714;2023-11-21T00:34:31;9.00;81.00
78028;DHT22;67235;45.638;11.714;2023-11-21T00:36:57;8.90;81.00
78028;DHT22;67235;45.638;11.714;2023-11-21T00:39:23;9.00;81.00
78028;DHT22;67235;45.638;11.714;2023-11-21T00:41:49;9.10;81.10
78028;DHT22;67235;45.638;11.714;2023-11-21T00:44:15;9.10;81.20
78028;DHT22;67235;45.638;11.714;2023-11-21T00:46:41;9.10;81.20
78028;DHT22;67235;45.638;11.714;2023-11-21T00:49:07;9.10;81.40
78028;DHT22;67235;45.638;11.714;2023-11-21T00:51:33;9.10;81.50
78028;DHT22;67235;45.638;11.714;2023-11-21T00:53:59;9.10;81.50
78028;DHT22;67235;45.638;11.714;2023-11-21T00:56:25;9.10;81.60
78028;DHT22;67235;45.638;11.714;2023-11-21T00:58:51;9.00;81.50
78028;DHT22;67235;45.638;11.714;2023-11-21T01:01:18;9.10;81.50
78028;DHT22;67235;45.638;11.714;2023-11-21T01:03:47;9.10;81.40
78028;DHT22;67235;45.638;11.714;2023-11-21T01:06:13;9.10;81.40
78028;DHT22;67235;45.638;11.714;2023-11-21T01:08:38;9.00;81.30
78028;DHT22;67235;45.638;11.714;2023-11-21T01:11:04;9.10;81.20
78028;DHT22;67235;45.638;11.714;2023-11-21T01:13:33;9.00;81.30
78028;DHT22;67235;45.638;11.714;2023-11-21T01:15:58;9.00;81.20
78028;DHT22;67235;45.638;11.714;2023-11-21T01:18:24;8.90;81.10
78028;DHT22;67235;45.638;11.714;2023-11-21T01:20:51;8.90;81.10
78028;DHT22;67235;45.638;11.714;2023-11-21T01:23:18;8.90;81.30
78028;DHT22;67235;45.638;11.714;2023-11-21T01:25:44;8.90;81.30
78028;DHT22;67235;45.638;11.714;2023-11-21T01:28:10;8.80;81.30
78028;DHT22;67235;45.638;11.714;2023-11-21T01:30:36;8.80;81.40
78028;DHT22;67235;45.638;11.714;2023-11-21T01:33:02;8.70;81.40
78028;DHT22;67235;45.638;11.714;2023-11-21T01:35:28;8.70;81.50
78028;DHT22;67235;45.638;11.714;2023-11-21T01:37:54;8.80;81.60
78028;DHT22;67235;45.638;11.714;2023-11-21T01:40:20;8.80;81.80
78028;DHT22;67235;45.638;11.714;2023-11-21T01:42:46;8.70;82.00
78028;DHT22;67235;45.638;11.714;2023-11-21T01:45:13;8.70;82.10
78028;DHT22;67235;45.638;11.714;2023-11-21T01:47:39;8.70;82.00
78028;DHT22;67235;45.638;11.714;2023-11-21T01:50:09;8.70;81.90
78028;DHT22;67235;45.638;11.714;2023-11-21T01:52:38;8.80;81.70
78028;DHT22;67235;45.638;11.714;2023-11-21T01:55:04;8.80;81.80
78028;DHT22;67235;45.638;11.714;2023-11-21T01:57:31;8.80;82.10
78028;DHT22;67235;45.638;11.714;2023-11-21T01:59:57;8.70;81.80
78028;DHT22;67235;45.638;11.714;2023-11-21T02:02:24;8.90;82.00
78028;DHT22;67235;45.638;11.714;2023-11-21T02:04:49;8.80;82.10
78028;DHT22;67235;45.638;11.714;2023-11-21T02:07:16;8.80;82.20
78028;DHT22;67235;45.638;11.714;2023-11-21T02:09:44;8.70;82.00
78028;DHT22;67235;45.638;11.714;2023-11-21T02:12:10;8.70;81.80
78028;DHT22;67235;45.638;11.714;2023-11-21T02:14:36;8.70;81.60
78028;DHT22;67235;45.638;11.714;2023-11-21T02:17:02;8.60;81.60
78028;DHT22;67235;45.638;11.714;2023-11-21T02:19:29;8.50;81.40
78028;DHT22;67235;45.638;11.714;2023-11-21T02:21:58;8.50;82.20
78028;DHT22;67235;45.638;11.714;2023-11-21T02:24:26;8.40;82.50
78028;DHT22;67235;45.638;11.714;2023-11-21T02:26:52;8.50;82.20
78028;DHT22;67235;45.638;11.714;2023-11-21T02:29:18;8.50;82.40
78028;DHT22;67235;45.638;11.714;2023-11-21T02:31:47;8.60;81.70
78028;DHT22;67235;45.638;11.714;2023-11-21T02:34:16;8.50;81.70
78028;DHT22;67235;45.638;11.714;2023-11-21T02:36:43;8.60;81.60
78028;DHT22;67235;45.638;11.714;2023-11-21T02:39:09;8.40;81.20
78028;DHT22;67235;45.638;11.714;2023-11-21T02:41:36;8.50;81.40
78028;DHT22;67235;45.638;11.714;2023-11-21T02:44:01;8.50;81.50
78028;DHT22;67235;45.638;11.714;2023-11-21T02:46:27;8.50;81.60
78028;DHT22;67235;45.638;11.714;2023-11-21T02:48:53;8.30;81.80
78028;DHT22;67235;45.638;11.714;2023-11-21T02:51:19;8.30;81.80
78028;DHT22;67235;45.638;11.714;2023-11-21T02:53:45;8.20;81.70
78028;DHT22;67235;45.638;11.714;2023-11-21T02:56:12;8.40;81.80
78028;DHT22;67235;45.638;11.714;2023-11-21T02:58:40;8.30;81.90
78028;DHT22;67235;45.638;11.714;2023-11-21T03:01:06;8.30;81.80
78028;DHT22;67235;45.638;11.714;2023-11-21T03:03:33;8.40;81.70
78028;DHT22;67235;45.638;11.714;2023-11-21T03:05:59;8.30;81.70
78028;DHT22;67235;45.638;11.714;2023-11-21T03:08:24;8.40;81.60
78028;DHT22;67235;45.638;11.714;2023-11-21T03:10:50;8.30;81.70
78028;DHT22;67235;45.638;11.714;2023-11-21T03:13:16;8.40;81.60
78028;DHT22;67235;45.638;11.714;2023-11-21T03:15:42;8.50;81.60
78028;DHT22;67235;45.638;11.714;2023-11-21T03:18:08;8.40;81.90
78028;DHT22;67235;45.638;11.714;2023-11-21T03:20:34;8.50;82.00
78028;DHT22;67235;45.638;11.714;2023-11-21T03:23:00;8.40;82.20
78028;DHT22;67235;45.638;11.714;2023-11-21T03:25:26;8.30;81.40
78028;DHT22;67235;45.638;11.714;2023-11-21T03:27:51;8.30;81.60
78028;DHT22;67235;45.638;11.714;2023-11-21T03:30:17;8.30;81.90
78028;DHT22;67235;45.638;11.714;2023-11-21T03:32:43;8.30;82.20
78028;DHT22;67235;45.638;11.714;2023-11-21T03:35:08;8.20;82.50
78028;DHT22;67235;45.638;11.714;2023-11-21T03:37:35;8.20;82.20
78028;DHT22;67235;45.638;11.714;2023-11-21T03:40:00;8.10;82.10
78028;DHT22;67235;45.638;11.714;2023-11-21T03:42:29;8.10;82.50
78028;DHT22;67235;45.638;11.714;2023-11-21T03:44:55;8.00;82.80
78028;DHT22;67235;45.638;11.714;2023-11-21T03:47:21;8.20;83.00
78028;DHT22;67235;45.638;11.714;2023-11-21T03:49:46;8.00;82.90
78028;DHT22;67235;45.638;11.714;2023-11-21T03:52:12;8.00;82.70
78028;DHT22;67235;45.638;11.714;2023-11-21T03:54:38;8.10;82.50
78028;DHT22;67235;45.638;11.714;2023-11-21T03:57:04;7.80;81.90
78028;DHT22;67235;45.638;11.714;2023-11-21T03:59:29;8.00;81.90
78028;DHT22;67235;45.638;11.714;2023-11-21T04:01:56;8.10;82.00
78028;DHT22;67235;45.638;11.714;2023-11-21T04:04:22;8.10;81.60
78028;DHT22;67235;45.638;11.714;2023-11-21T04:06:49;7.90;81.60
78028;DHT22;67235;45.638;11.714;2023-11-21T04:09:17;7.90;82.00
78028;DHT22;67235;45.638;11.714;2023-11-21T04:11:43;7.60;82.40
78028;DHT22;67235;45.638;11.714;2023-11-21T04:14:11;7.70;82.00
78028;DHT22;67235;45.638;11.714;2023-11-21T04:16:37;7.70;82.20
78028;DHT22;67235;45.638;11.714;2023-11-21T04:19:02;7.80;82.00
78028;DHT22;67235;45.638;11.714;2023-11-21T04:21:28;7.40;81.90
78028;DHT22;67235;45.638;11.714;2023-11-21T04:23:54;7.60;82.10
78028;DHT22;67235;45.638;11.714;2023-11-21T04:26:19;7.60;82.20
78028;DHT22;67235;45.638;11.714;2023-11-21T04:28:45;7.60;82.10
78028;DHT22;67235;45.638;11.714;2023-11-21T04:31:13;7.70;81.90
78028;DHT22;67235;45.638;11.714;2023-11-21T04:33:45;7.60;81.60
78028;DHT22;67235;45.638;11.714;2023-11-21T04:36:11;7.40;81.90
78028;DHT22;67235;45.638;11.714;2023-11-21T04:38:37;7.40;82.40
78028;DHT22;67235;45.638;11.714;2023-11-21T04:41:05;7.30;82.50
78028;DHT22;67235;45.638;11.714;2023-11-21T04:43:34;7.60;82.40
78028;DHT22;67235;45.638;11.714;2023-11-21T04:46:01;7.40;81.30
78028;DHT22;67235;45.638;11.714;2023-11-21T04:48:27;7.30;81.20
78028;DHT22;67235;45.638;11.714;2023-11-21T04:50:53;7.20;81.20
78028;DHT22;67235;45.638;11.714;2023-11-21T04:53:20;7.10;81.20
78028;DHT22;67235;45.638;11.714;2023-11-21T04:55:51;6.90;80.90
78028;DHT22;67235;45.638;11.714;2023-11-21T04:58:21;7.00;81.20
78028;DHT22;67235;45.638;11.714;2023-11-21T05:00:50;6.90;81.40
78028;DHT22;67235;45.638;11.714;2023-11-21T05:03:16;6.90;81.50
78028;DHT22;67235;45.638;11.714;2023-11-21T05:05:42;6.90;81.50
78028;DHT22;67235;45.638;11.714;2023-11-21T05:08:09;6.80;81.70
78028;DHT22;67235;45.638;11.714;2023-11-21T05:10:34;6.80;81.90
78028;DHT22;67235;45.638;11.714;2023-11-21T05:13:03;6.90;81.90
78028;DHT22;67235;45.638;11.714;2023-11-21T05:15:29;6.90;82.20
78028;DHT22;67235;45.638;11.714;2023-11-21T05:17:55;6.80;82.40
78028;DHT22;67235;45.638;11.714;2023-11-21T05:20:20;6.70;82.40
78028;DHT22;67235;45.638;11.714;2023-11-21T05:22:49;6.90;82.30
78028;DHT22;67235;45.638;11.714;2023-11-21T05:25:15;6.90;82.40
78028;DHT22;67235;45.638;11.714;2023-11-21T05:27:46;6.80;82.00
78028;DHT22;67235;45.638;11.714;2023-11-21T05:30:12;6.90;82.00
78028;DHT22;67235;45.638;11.714;2023-11-21T05:32:39;6.80;82.00
78028;DHT22;67235;45.638;11.714;2023-11-21T05:35:05;6.80;81.40
78028;DHT22;67235;45.638;11.714;2023-11-21T05:37:35;6.90;81.60
78028;DHT22;67235;45.638;11.714;2023-11-21T05:40:01;6.80;81.30
78028;DHT22;67235;45.638;11.714;2023-11-21T05:42:31;6.90;81.20
78028;DHT22;67235;45.638;11.714;2023-11-21T05:44:57;6.80;81.30
78028;DHT22;67235;45.638;11.714;2023-11-21T05:47:24;6.90;81.30
78028;DHT22;67235;45.638;11.714;2023-11-21T05:49:51;7.00;81.50
78028;DHT22;67235;45.638;11.714;2023-11-21T05:52:17;6.90;81.30
78028;DHT22;67235;45.638;11.714;2023-11-21T05:54:43;7.00;81.40
78028;DHT22;67235;45.638;11.714;2023-11-21T05:57:09;7.00;81.70
78028;DHT22;67235;45.638;11.714;2023-11-21T05:59:34;7.10;81.90
78028;DHT22;67235;45.638;11.714;2023-11-21T06:02:00;7.20;81.90
78028;DHT22;67235;45.638;11.714;2023-11-21T06:04:27;7.30;82.20
78028;DHT22;67235;45.638;11.714;2023-11-21T06:06:53;7.20;82.30
78028;DHT22;67235;45.638;11.714;2023-11-21T06:09:19;7.50;82.50
78028;DHT22;67235;45.638;11.714;2023-11-21T06:11:46;7.70;82.50
78028;DHT22;67235;45.638;11.714;2023-11-21T06:14:11;7.40;82.10
78028;DHT22;67235;45.638;11.714;2023-11-21T06:16:37;7.70;82.30
78028;DHT22;67235;45.638;11.714;2023-11-21T06:19:02;7.80;82.00
78028;DHT22;67235;45.638;11.714;2023-11-21T06:21:28;7.90;82.10
78028;DHT22;67235;45.638;11.714;2023-11-21T06:23:54;7.90;82.30
78028;DHT22;67235;45.638;11.714;2023-11-21T06:26:22;8.10;82.40
78028;DHT22;67235;45.638;11.714;2023-11-21T06:28:48;8.10;82.60
78028;DHT22;67235;45.638;11.714;2023-11-21T06:31:16;8.10;82.80
78028;DHT22;67235;45.638;11.714;2023-11-21T06:33:43;8.10;82.70
78028;DHT22;67235;45.638;11.714;2023-11-21T06:36:09;8.10;82.80
78028;DHT22;67235;45.638;11.714;2023-11-21T06:38:37;8.30;82.90
78028;DHT22;67235;45.638;11.714;2023-11-21T06:41:02;8.40;82.90
78028;DHT22;67235;45.638;11.714;2023-11-21T06:43:29;8.40;83.00
78028;DHT22;67235;45.638;11.714;2023-11-21T06:45:56;8.30;82.70
78028;DHT22;67235;45.638;11.714;2023-11-21T06:48:22;8.40;82.60
78028;DHT22;67235;45.638;11.714;2023-11-21T06:50:50;8.50;82.70
78028;DHT22;67235;45.638;11.714;2023-11-21T06:53:27;8.60;82.70
78028;DHT22;67235;45.638;11.714;2023-11-21T06:56:18;8.60;82.80
78028;DHT22;67235;45.638;11.714;2023-11-21T06:58:45;8.80;82.50
78028;DHT22;67235;45.638;11.714;2023-11-21T07:01:15;8.80;82.00
78028;DHT22;67235;45.638;11.714;2023-11-21T07:03:41;8.90;82.00
78028;DHT22;67235;45.638;11.714;2023-11-21T07:06:08;9.00;81.70
78028;DHT22;67235;45.638;11.714;2023-11-21T07:08:34;9.20;82.20
78028;DHT22;67235;45.638;11.714;2023-11-21T07:11:00;9.30;81.90
78028;DHT22;67235;45.638;11.714;2023-11-21T07:13:25;9.30;81.70
78028;DHT22;67235;45.638;11.714;2023-11-21T07:15:51;9.30;81.10
78028;DHT22;67235;45.638;11.714;2023-11-21T07:18:17;9.40;81.00
78028;DHT22;67235;45.638;11.714;2023-11-21T07:20:43;9.50;81.10
78028;DHT22;67235;45.638;11.714;2023-11-21T07:23:09;9.50;81.20
78028;DHT22;67235;45.638;11.714;2023-11-21T07:25:35;9.60;81.00
78028;DHT22;67235;45.638;11.714;2023-11-21T07:28:01;9.70;81.00
78028;DHT22;67235;45.638;11.714;2023-11-21T07:30:27;9.80;80.50
78028;DHT22;67235;45.638;11.714;2023-11-21T07:32:53;10.00;80.20
78028;DHT22;67235;45.638;11.714;2023-11-21T07:35:18;10.00;80.10
78028;DHT22;67235;45.638;11.714;2023-11-21T07:37:44;10.10;80.20
78028;DHT22;67235;45.638;11.714;2023-11-21T07:40:10;10.10;79.70
78028;DHT22;67235;45.638;11.714;2023-11-21T07:42:37;10.00;79.70
78028;DHT22;67235;45.638;11.714;2023-11-21T07:45:04;9.90;80.00
78028;DHT22;67235;45.638;11.714;2023-11-21T07:47:30;9.90;80.20
78028;DHT22;67235;45.638;11.714;2023-11-21T07:49:55;9.90;80.40
78028;DHT22;67235;45.638;11.714;2023-11-21T07:52:22;9.90;80.40
78028;DHT22;67235;45.638;11.714;2023-11-21T07:54:48;10.00;82.50
78028;DHT22;67235;45.638;11.714;2023-11-21T07:57:15;10.40;82.70
78028;DHT22;67235;45.638;11.714;2023-11-21T07:59:43;10.30;81.10
78028;DHT22;67235;45.638;11.714;2023-11-21T08:02:10;10.40;80.20
78028;DHT22;67235;45.638;11.714;2023-11-21T08:04:36;10.40;80.20
78028;DHT22;67235;45.638;11.714;2023-11-21T08:07:02;10.40;80.20
78028;DHT22;67235;45.638;11.714;2023-11-21T08:09:29;10.50;80.20
78028;DHT22;67235;45.638;11.714;2023-11-21T08:11:55;10.40;80.20
78028;DHT22;67235;45.638;11.714;2023-11-21T08:14:22;10.50;80.50
78028;DHT22;67235;45.638;11.714;2023-11-21T08:16:47;10.40;80.70
78028;DHT22;67235;45.638;11.714;2023-11-21T08:19:13;10.40;80.60
78028;DHT22;67235;45.638;11.714;2023-11-21T08:21:39;10.40;80.50
78028;DHT22;67235;45.638;11.714;2023-11-21T08:24:06;10.50;80.60
78028;DHT22;67235;45.638;11.714;2023-11-21T08:26:32;10.50;80.60
78028;DHT22;67235;45.638;11.714;2023-11-21T08:28:57;10.60;80.60
78028;DHT22;67235;45.638;11.714;2023-11-21T08:31:24;10.70;80.80
78028;DHT22;67235;45.638;11.714;2023-11-21T08:33:51;10.70;81.30
78028;DHT22;67235;45.638;11.714;2023-11-21T08:36:24;10.70;81.30
78028;DHT22;67235;45.638;11.714;2023-11-21T08:38:51;10.80;80.90
78028;DHT22;67235;45.638;11.714;2023-11-21T08:41:20;10.80;80.90
78028;DHT22;67235;45.638;11.714;2023-11-21T08:43:52;10.80;80.70
78028;DHT22;67235;45.638;11.714;2023-11-21T08:46:19;10.80;80.70
78028;DHT22;67235;45.638;11.714;2023-11-21T08:48:44;10.90;80.80
78028;DHT22;67235;45.638;11.714;2023-11-21T08:51:10;10.80;80.90
78028;DHT22;67235;45.638;11.714;2023-11-21T08:53:42;10.70;81.10
78028;DHT22;67235;45.638;11.714;2023-11-21T08:56:12;10.60;81.10
78028;DHT22;67235;45.638;11.714;2023-11-21T08:58:37;10.70;80.80
78028;DHT22;67235;45.638;11.714;2023-11-21T09:01:04;10.80;80.40
78028;DHT22;67235;45.638;11.714;2023-11-21T09:03:30;10.90;80.00
78028;DHT22;67235;45.638;11.714;2023-11-21T09:05:57;10.90;79.10
78028;DHT22;67235;45.638;11.714;2023-11-21T09:08:24;10.90;80.40
78028;DHT22;67235;45.638;11.714;2023-11-21T09:10:49;10.90;80.90
78028;DHT22;67235;45.638;11.714;2023-11-21T09:13:15;10.90;79.90
78028;DHT22;67235;45.638;11.714;2023-11-21T09:15:42;11.00;79.90
78028;DHT22;67235;45.638;11.714;2023-11-21T09:18:14;10.90;79.40
78028;DHT22;67235;45.638;11.714;2023-11-21T09:20:42;10.90;78.90
78028;DHT22;67235;45.638;11.714;2023-11-21T09:23:10;11.00;79.20
78028;DHT22;67235;45.638;11.714;2023-11-21T09:25:35;11.10;79.80
78028;DHT22;67235;45.638;11.714;2023-11-21T09:28:03;11.10;80.60
78028;DHT22;67235;45.638;11.714;2023-11-21T09:30:36;11.20;80.80
78028;DHT22;67235;45.638;11.714;2023-11-21T09:33:02;11.10;80.90
78028;DHT22;67235;45.638;11.714;2023-11-21T09:37:55;11.30;80.70
78028;DHT22;67235;45.638;11.714;2023-11-21T09:40:21;11.40;80.50
78028;DHT22;67235;45.638;11.714;2023-11-21T09:42:54;11.40;80.50
78028;DHT22;67235;45.638;11.714;2023-11-21T09:45:41;11.50;80.60
78028;DHT22;67235;45.638;11.714;2023-11-21T09:48:09;11.50;80.10
78028;DHT22;67235;45.638;11.714;2023-11-21T09:50:36;11.40;80.10
78028;DHT22;67235;45.638;11.714;2023-11-21T09:53:12;11.50;80.20
78028;DHT22;67235;45.638;11.714;2023-11-21T09:55:42;11.30;80.40
78028;DHT22;67235;45.638;11.714;2023-11-21T09:58:10;11.30;80.70
78028;DHT22;67235;45.638;11.714;2023-11-21T10:00:41;11.30;80.60
78028;DHT22;67235;45.638;11.714;2023-11-21T10:03:07;11.30;80.80
78028;DHT22;67235;45.638;11.714;2023-11-21T10:05:34;11.30;80.60
78028;DHT22;67235;45.638;11.714;2023-11-21T10:10:26;11.20;80.60
78028;DHT22;67235;45.638;11.714;2023-11-21T10:12:56;11.30;80.50
78028;DHT22;67235;45.638;11.714;2023-11-21T10:15:23;11.40;80.50
78028;DHT22;67235;45.638;11.714;2023-11-21T10:17:50;11.30;80.80
78028;DHT22;67235;45.638;11.714;2023-11-21T10:20:22;11.40;80.80
78028;DHT22;67235;45.638;11.714;2023-11-21T10:22:51;11.40;81.00
78028;DHT22;67235;45.638;11.714;2023-11-21T10:25:17;11.50;80.80
78028;DHT22;67235;45.638;11.714;2023-11-21T10:27:47;11.50;80.90
78028;DHT22;67235;45.638;11.714;2023-11-21T10:30:13;11.50;80.80
78028;DHT22;67235;45.638;11.714;2023-11-21T10:32:41;11.40;81.30
78028;DHT22;67235;45.638;11.714;2023-11-21T10:35:07;11.50;81.10
78028;DHT22;67235;45.638;11.714;2023-11-21T10:37:36;11.50;81.00
78028;DHT22;67235;45.638;11.714;2023-11-21T10:40:02;11.60;81.00
78028;DHT22;67235;45.638;11.714;2023-11-21T10:42:29;11.60;81.20
78028;DHT22;67235;45.638;11.714;2023-11-21T10:44:58;11.90;81.10
78028;DHT22;67235;45.638;11.714;2023-11-21T10:47:23;11.90;80.90
78028;DHT22;67235;45.638;11.714;2023-11-21T10:49:49;11.80;81.30
78028;DHT22;67235;45.638;11.714;2023-11-21T10:52:15;12.00;81.70
78028;DHT22;67235;45.638;11.714;2023-11-21T10:54:43;12.10;81.50
78028;DHT22;67235;45.638;11.714;2023-11-21T10:57:09;12.30;81.40
78028;DHT22;67235;45.638;11.714;2023-11-21T10:59:36;12.70;84.40
78028;DHT22;67235;45.638;11.714;2023-11-21T11:02:14;13.00;80.10
78028;DHT22;67235;45.638;11.714;2023-11-21T11:04:42;13.20;79.50
78028;DHT22;67235;45.638;11.714;2023-11-21T11:07:08;13.20;78.70
78028;DHT22;67235;45.638;11.714;2023-11-21T11:09:35;13.50;78.90
78028;DHT22;67235;45.638;11.714;2023-11-21T11:12:04;13.60;78.00
78028;DHT22;67235;45.638;11.714;2023-11-21T11:14:32;13.70;78.00
78028;DHT22;67235;45.638;11.714;2023-11-21T11:16:58;13.90;77.90
78028;DHT22;67235;45.638;11.714;2023-11-21T11:19:25;14.30;77.90
78028;DHT22;67235;45.638;11.714;2023-11-21T11:27:01;14.90;76.00
78028;DHT22;67235;45.638;11.714;2023-11-21T11:35:19;15.00;75.20
78028;DHT22;67235;45.638;11.714;2023-11-21T11:37:47;15.10;75.10
78028;DHT22;67235;45.638;11.714;2023-11-21T11:40:13;15.10;74.80
78028;DHT22;67235;45.638;11.714;2023-11-21T11:42:54;15.10;74.70
78028;DHT22;67235;45.638;11.714;2023-11-21T11:45:20;14.80;74.90
78028;DHT22;67235;45.638;11.714;2023-11-21T11:47:46;14.80;74.40
78028;DHT22;67235;45.638;11.714;2023-11-21T11:50:14;14.70;74.60
78028;DHT22;67235;45.638;11.714;2023-11-21T11:52:44;14.70;74.40
78028;DHT22;67235;45.638;11.714;2023-11-21T11:55:11;14.60;74.80
78028;DHT22;67235;45.638;11.714;2023-11-21T11:57:44;14.60;74.80
78028;DHT22;67235;45.638;11.714;2023-11-21T12:00:21;14.80;73.90
78028;DHT22;67235;45.638;11.714;2023-11-21T12:02:54;14.70;73.60
78028;DHT22;67235;45.638;11.714;2023-11-21T12:05:20;14.80;73.50
78028;DHT22;67235;45.638;11.714;2023-11-21T12:07:59;14.80;73.10
78028;DHT22;67235;45.638;11.714;2023-11-21T12:10:26;14.80;73.30
78028;DHT22;67235;45.638;11.714;2023-11-21T12:12:57;14.70;73.40
78028;DHT22;67235;45.638;11.714;2023-11-21T12:15:23;14.80;73.50
78028;DHT22;67235;45.638;11.714;2023-11-21T12:17:49;14.80;73.20
78028;DHT22;67235;45.638;11.714;2023-11-21T12:20:16;14.80;73.40
78028;DHT22;67235;45.638;11.714;2023-11-21T12:22:44;14.60;73.50
78028;DHT22;67235;45.638;11.714;2023-11-21T12:25:10;14.50;73.50
78028;DHT22;67235;45.638;11.714;2023-11-21T12:27:42;14.30;74.40
78028;DHT22;67235;45.638;11.714;2023-11-21T12:30:08;14.30;74.40
78028;DHT22;67235;45.638;11.714;2023-11-21T12:32:42;14.20;74.50
78028;DHT22;67235;45.638;11.714;2023-11-21T12:35:08;14.10;74.80
78028;DHT22;67235;45.638;11.714;2023-11-21T12:37:36;14.10;76.00
78028;DHT22;67235;45.638;11.714;2023-11-21T12:40:02;13.90;75.30
78028;DHT22;67235;45.638;11.714;2023-11-21T12:42:28;14.00;75.50
78028;DHT22;67235;45.638;11.714;2023-11-21T12:45:09;13.90;76.20
78028;DHT22;67235;45.638;11.714;2023-11-21T12:47:41;13.80;76.20
78028;DHT22;67235;45.638;11.714;2023-11-21T12:50:07;13.80;76.20
78028;DHT22;67235;45.638;11.714;2023-11-21T12:52:40;13.70;76.40
78028;DHT22;67235;45.638;11.714;2023-11-21T12:55:06;13.80;75.80
78028;DHT22;67235;45.638;11.714;2023-11-21T12:57:33;13.80;76.70
78028;DHT22;67235;45.638;11.714;2023-11-21T12:59:59;13.70;76.60
78028;DHT22;67235;45.638;11.714;2023-11-21T13:02:26;13.60;77.30
78028;DHT22;67235;45.638;11.714;2023-11-21T13:04:52;13.70;77.20
78028;DHT22;67235;45.638;11.714;2023-11-21T13:07:18;13.60;77.50
78028;DHT22;67235;45.638;11.714;2023-11-21T13:09:45;13.40;78.10
78028;DHT22;67235;45.638;11.714;2023-11-21T13:12:11;13.40;78.50
78028;DHT22;67235;45.638;11.714;2023-11-21T13:14:39;13.30;78.80
78028;DHT22;67235;45.638;11.714;2023-11-21T13:17:08;13.40;78.70
78028;DHT22;67235;45.638;11.714;2023-11-21T13:19:35;13.30;79.00
78028;DHT22;67235;45.638;11.714;2023-11-21T13:22:01;13.30;79.80
78028;DHT22;67235;45.638;11.714;2023-11-21T13:24:29;13.20;80.30
78028;DHT22;67235;45.638;11.714;2023-11-21T13:26:56;13.20;80.20
78028;DHT22;67235;45.638;11.714;2023-11-21T13:29:21;13.40;80.40
78028;DHT22;67235;45.638;11.714;2023-11-21T13:31:48;13.40;80.40
78028;DHT22;67235;45.638;11.714;2023-11-21T13:34:16;13.50;79.90
78028;DHT22;67235;45.638;11.714;2023-11-21T13:36:45;13.50;79.90
78028;DHT22;67235;45.638;11.714;2023-11-21T13:39:14;13.60;80.00
78028;DHT22;67235;45.638;11.714;2023-11-21T13:41:42;13.60;80.20
78028;DHT22;67235;45.638;11.714;2023-11-21T13:44:07;13.60;80.30
78028;DHT22;67235;45.638;11.714;2023-11-21T13:46:54;13.70;80.60
78028;DHT22;67235;45.638;11.714;2023-11-21T13:49:40;13.80;80.40
78028;DHT22;67235;45.638;11.714;2023-11-21T13:52:26;13.90;80.60
78028;DHT22;67235;45.638;11.714;2023-11-21T13:55:10;13.80;80.90
78028;DHT22;67235;45.638;11.714;2023-11-21T13:57:42;13.90;80.40
78028;DHT22;67235;45.638;11.714;2023-11-21T14:00:15;13.80;80.60
78028;DHT22;67235;45.638;11.714;2023-11-21T14:02:59;13.90;80.80
78028;DHT22;67235;45.638;11.714;2023-11-21T14:05:29;13.90;80.90
78028;DHT22;67235;45.638;11.714;2023-11-21T14:08:14;13.80;81.10
78028;DHT22;67235;45.638;11.714;2023-11-21T14:10:48;13.80;81.00
78028;DHT22;67235;45.638;11.714;2023-11-21T14:13:37;13.80;81.00
78028;DHT22;67235;45.638;11.714;2023-11-21T14:16:06;13.80;80.90
78028;DHT22;67235;45.638;11.714;2023-11-21T14:18:38;13.90;80.50
78028;DHT22;67235;45.638;11.714;2023-11-21T14:21:23;13.90;79.80
78028;DHT22;67235;45.638;11.714;2023-11-21T14:23:49;13.90;79.70
78028;DHT22;67235;45.638;11.714;2023-11-21T14:26:15;13.80;79.60
78028;DHT22;67235;45.638;11.714;2023-11-21T14:31:26;13.70;78.70
78028;DHT22;67235;45.638;11.714;2023-11-21T14:39:01;13.90;78.00
78028;DHT22;67235;45.638;11.714;2023-11-21T14:41:30;13.80;78.00
78028;DHT22;67235;45.638;11.714;2023-11-21T14:44:15;13.70;77.70
78028;DHT22;67235;45.638;11.714;2023-11-21T14:47:21;13.70;77.80
78028;DHT22;67235;45.638;11.714;2023-11-21T14:49:54;13.70;78.00
78028;DHT22;67235;45.638;11.714;2023-11-21T14:52:30;13.60;77.90
78028;DHT22;67235;45.638;11.714;2023-11-21T14:55:01;13.60;78.00
78028;DHT22;67235;45.638;11.714;2023-11-21T14:57:57;13.70;77.70
78028;DHT22;67235;45.638;11.714;2023-11-21T15:00:32;13.60;77.60
78028;DHT22;67235;45.638;11.714;2023-11-21T15:03:30;13.70;77.60
78028;DHT22;67235;45.638;11.714;2023-11-21T15:06:02;13.60;77.30
78028;DHT22;67235;45.638;11.714;2023-11-21T15:08:53;13.60;77.20
78028;DHT22;67235;45.638;11.714;2023-11-21T15:11:39;13.60;77.20
78028;DHT22;67235;45.638;11.714;2023-11-21T15:14:05;13.60;77.20
78028;DHT22;67235;45.638;11.714;2023-11-21T15:19:01;13.50;77.00
78028;DHT22;67235;45.638;11.714;2023-11-21T15:21:26;13.40;77.00
78028;DHT22;67235;45.638;11.714;2023-11-21T15:23:58;13.40;77.10
78028;DHT22;67235;45.638;11.714;2023-11-21T15:26:30;13.50;77.10
78028;DHT22;67235;45.638;11.714;2023-11-21T15:28:56;13.40;76.80
78028;DHT22;67235;45.638;11.714;2023-11-21T15:31:23;13.40;76.70
78028;DHT22;67235;45.638;11.714;2023-11-21T15:33:51;13.40;76.60
78028;DHT22;67235;45.638;11.714;2023-11-21T15:36:36;13.40;76.40
78028;DHT22;67235;45.638;11.714;2023-11-21T15:39:05;13.40;76.30
78028;DHT22;67235;45.638;11.714;2023-11-21T15:41:32;13.40;75.90
78028;DHT22;67235;45.638;11.714;2023-11-21T15:43:59;13.30;76.20
78028;DHT22;67235;45.638;11.714;2023-11-21T15:46:25;13.40;76.30
78028;DHT22;67235;45.638;11.714;2023-11-21T15:51:20;13.30;76.50
78028;DHT22;67235;45.638;11.714;2023-11-21T15:53:46;13.30;76.20
78028;DHT22;67235;45.638;11.714;2023-11-21T15:56:11;13.30;76.20